Imagination — C6FN2 — position and weather

sailwx.info

Track history (hours):
 
Tides and Currents Weather Stations Pressure Air Temp Water Temp Dewpoint Dewpoint Depression Visibility Wind Speed Wind Dir Waves Ship Positions

Imagination

Operator: Carnival Cruise Lines

Last reported at 2017-Jun-23 12:44 UTC. Time now 2017-Jun-23 17:24 UTC.
Position N 31°53' W 116°50'.

Type: Ship. MMSI: 309933000.

Date/timePositionNaut miles runAvg speedWind from/ knotsBaromVisibWave heightAir tempDewpointWater temp
2017-Jun-23 12:44N 31°53' W 116°50'311.5
2017-Jun-23 12:26N 31°54' W 116°54'512.3
2017-Jun-23 12:00N 31°56' W 116°60'712.4
2017-Jun-23 11:27N 31°58' W 117°07'612.3
2017-Jun-23 11:00N 31°59' W 117°14'611.9
2017-Jun-23 10:30N 32°03' W 117°19'612.4
2017-Jun-23 10:00N 32°07' W 117°24'712.7
2017-Jun-23 09:29N 32°12' W 117°30'612.3
2017-Jun-23 09:00N 32°17' W 117°33'612.7
2017-Jun-23 08:30N 32°23' W 117°35'612.4
2017-Jun-23 08:00N 32°29' W 117°36'611.5
2017-Jun-23 07:31N 32°34' W 117°40'611.8
2017-Jun-23 07:01N 32°39' W 117°44'612.4
2017-Jun-23 06:30N 32°45' W 117°46'612.2
2017-Jun-23 06:01N 32°51' W 117°48'612.2
2017-Jun-23 05:30N 32°56' W 117°51'612.6
2017-Jun-23 05:01N 33°02' W 117°55'612.2
2017-Jun-23 04:31N 33°07' W 117°59'611.9
2017-Jun-23 04:01N 33°12' W 118°02'612.0
2017-Jun-23 03:31N 33°17' W 118°06'611.9
2017-Jun-23 03:01N 33°23' W 118°09'611.8
2017-Jun-23 02:31N 33°28' W 118°11'611.8
2017-Jun-23 02:01N 33°34' W 118°13'611.4
2017-Jun-23 01:30N 33°40' W 118°12'5 9.6
2017-Jun-23 01:00N 33°44' W 118°11'1 1.5
2017-Jun-23 00:30N 33°45' W 118°11'0 0.0
2017-Jun-22 23:57N 33°45' W 118°11'0 0.0
2017-Jun-22 23:30N 33°45' W 118°11'0 0.0
2017-Jun-22 22:56N 33°45' W 118°11'0 0.0
2017-Jun-22 22:29N 33°45' W 118°11'0 0.0
2017-Jun-22 21:59N 33°45' W 118°11'0 0.0
2017-Jun-22 21:29N 33°45' W 118°11'0 0.0
2017-Jun-22 20:58N 33°45' W 118°11'0 0.0
2017-Jun-22 20:28N 33°45' W 118°11'0 0.0
2017-Jun-22 19:58N 33°45' W 118°11'0 0.0
2017-Jun-22 19:28N 33°45' W 118°11'0 0.0
2017-Jun-22 18:58N 33°45' W 118°11'0 0.0
2017-Jun-22 18:30N 33°45' W 118°11'0 0.0
2017-Jun-22 18:00N 33°45' W 118°11'0 0.0
2017-Jun-22 17:30N 33°45' W 118°11'0 0.0
2017-Jun-22 16:57N 33°45' W 118°11'0 0.0
2017-Jun-22 16:30N 33°45' W 118°11'0 0.0
2017-Jun-22 15:59N 33°45' W 118°11'0 0.0
2017-Jun-22 15:29N 33°45' W 118°11'0 0.0
2017-Jun-22 14:59N 33°45' W 118°11'0 0.0
2017-Jun-22 13:59N 33°45' W 118°11'0 0.0
2017-Jun-22 13:28N 33°45' W 118°11'0 0.0
2017-Jun-22 12:58N 33°45' W 118°11'0 0.4
2017-Jun-22 12:30N 33°45' W 118°11'3 5.7
2017-Jun-22 12:00N 33°42' W 118°11'510.0
2017-Jun-22 11:30N 33°37' W 118°10'4 7.3
2017-Jun-22 11:00N 33°34' W 118°09'4 7.3
2017-Jun-22 10:30N 33°30' W 118°07'4 7.2
2017-Jun-22 10:00N 33°27' W 118°06'4 7.4
2017-Jun-22 09:30N 33°23' W 118°04'4 7.4
2017-Jun-22 09:00N 33°20' W 118°03'4 7.2
2017-Jun-22 08:30N 33°16' W 118°01'4 7.3
2017-Jun-22 08:00N 33°13' W 117°59'4 7.3
2017-Jun-22 07:30N 33°10' W 117°58'4 7.4
2017-Jun-22 07:00N 33°06' W 117°56'4 7.7
2017-Jun-22 06:30N 33°03' W 117°54'4 7.7
2017-Jun-22 06:00N 32°59' W 117°53'4 8.9
2017-Jun-22 05:30N 32°55' W 117°51'4 9.0
2017-Jun-22 05:00N 32°51' W 117°49'5 9.3
2017-Jun-22 04:30N 32°46' W 117°48'5 9.3
2017-Jun-22 04:00N 32°42' W 117°47'5 9.1
2017-Jun-22 03:30N 32°37' W 117°45'5 9.5
2017-Jun-22 03:00N 32°35' W 117°40'4 8.8
2017-Jun-22 02:30N 32°32' W 117°36'5 9.1
2017-Jun-22 02:00N 32°27' W 117°35'4 9.0
2017-Jun-22 01:30N 32°23' W 117°34'4 8.8
2017-Jun-22 01:00N 32°19' W 117°33'4 8.5
2017-Jun-22 00:30N 32°15' W 117°31'5 8.6
2017-Jun-21 23:55N 32°11' W 117°27'4 8.6
2017-Jun-21 23:30N 32°09' W 117°24'4 8.5
2017-Jun-21 22:59N 32°06' W 117°20'5 8.7
2017-Jun-21 22:27N 32°02' W 117°16'4 9.3
2017-Jun-21 22:00N 31°59' W 117°14'7 9.0
2017-Jun-21 21:11N 31°52' W 117°09'2 9.6
2017-Jun-21 21:00N 31°51' W 117°10'612.0
2017-Jun-21 20:28N 31°49' W 117°17'814.1
2017-Jun-21 19:56N 31°48' W 117°26'614.1
2017-Jun-21 19:30N 31°48' W 117°33'714.1
2017-Jun-21 19:00N 31°47' W 117°41'714.1
2017-Jun-21 18:30N 31°47' W 117°49'713.8
2017-Jun-21 18:00N 31°46' W 117°58'713.6
2017-Jun-21 17:31N 31°45' W 118°05'713.4
2017-Jun-21 17:00N 31°41' W 118°12'714.1
2017-Jun-21 16:30N 31°34' W 118°12'714.1
2017-Jun-21 16:01N 31°27' W 118°12'612.1
2017-Jun-21 15:31N 31°22' W 118°08'713.9
2017-Jun-21 15:01N 31°22' W 118°00'611.4
2017-Jun-21 14:31N 31°22' W 117°53'7 6.5
2017-Jun-21 13:30N 31°23' W 117°46'3 6.7
2017-Jun-21 13:00N 31°26' W 117°46'4 7.1
2017-Jun-21 12:31N 31°29' W 117°47'4 7.0
2017-Jun-21 12:01N 31°33' W 117°49'3 6.9
2017-Jun-21 11:30N 31°36' W 117°50'3 6.3
2017-Jun-21 11:00N 31°39' W 117°49'3 6.7
2017-Jun-21 10:30N 31°40' W 117°45'3 6.3
2017-Jun-21 10:01N 31°41' W 117°41'3 6.4
2017-Jun-21 09:31N 31°42' W 117°38'3 6.6
2017-Jun-21 09:01N 31°43' W 117°34'3 6.4
2017-Jun-21 08:31N 31°43' W 117°30'3 6.5
2017-Jun-21 08:00N 31°44' W 117°27'3 6.7
2017-Jun-21 07:30N 31°45' W 117°23'3 6.3
2017-Jun-21 07:00N 31°46' W 117°19'3 6.4
2017-Jun-21 06:30N 31°47' W 117°16'3 6.7
2017-Jun-21 06:00N 31°48' W 117°12'3 6.6
2017-Jun-21 05:30N 31°49' W 117°08'3 6.5
2017-Jun-21 05:00N 31°50' W 117°04'9 6.5
2017-Jun-21 03:32N 31°52' W 116°54'7 6.4
2017-Jun-21 02:29N 31°51' W 116°46'3 6.6
2017-Jun-21 02:00N 31°50' W 116°42'3 0.3
2017-Jun-20 14:03N 31°50' W 116°38'10 7.6
2017-Jun-20 12:48N 31°53' W 116°49'3 9.9
2017-Jun-20 12:30N 31°54' W 116°52'5 9.9
2017-Jun-20 12:00N 31°55' W 116°58'5 9.9
2017-Jun-20 11:30N 31°57' W 117°03'5 9.7
2017-Jun-20 11:01N 31°58' W 117°09'5 9.7
2017-Jun-20 10:30N 31°59' W 117°15'4 8.9
2017-Jun-20 10:00N 32°01' W 117°19'5 9.4
2017-Jun-20 09:31N 32°05' W 117°22'5 9.7
2017-Jun-20 09:00N 32°08' W 117°26'5 9.7
2017-Jun-20 08:31N 32°12' W 117°30'5 9.9
2017-Jun-20 08:01N 32°16' W 117°33'510.7
2017-Jun-20 07:31N 32°21' W 117°34'510.5
2017-Jun-20 07:00N 32°27' W 117°35'510.5
2017-Jun-20 06:31N 32°32' W 117°36'5 9.5
2017-Jun-20 06:00N 32°35' W 117°40'510.1
2017-Jun-20 05:31N 32°38' W 117°46'611.1
2017-Jun-20 05:01N 32°43' W 117°48'510.7
2017-Jun-20 04:31N 32°48' W 117°50'510.5
2017-Jun-20 04:01N 32°53' W 117°53'510.6
2017-Jun-20 03:30N 32°57' W 117°55'510.4
2017-Jun-20 03:00N 33°02' W 117°58'510.7
2017-Jun-20 02:30N 33°06' W 118°02'510.5
2017-Jun-20 02:01N 33°10' W 118°06'510.3
2017-Jun-20 01:30N 33°14' W 118°10'510.2
2017-Jun-20 01:00N 33°18' W 118°15'4 9.0
2017-Jun-20 00:30N 33°21' W 118°19'0 0.9
2017-Jun-19 23:58N 33°21' W 118°19'0 0.1
2017-Jun-19 23:28N 33°21' W 118°19'0 0.1
2017-Jun-19 22:58N 33°21' W 118°19'0 0.0
2017-Jun-19 22:28N 33°21' W 118°19'0 0.1
2017-Jun-19 22:00N 33°21' W 118°19'0 0.0
2017-Jun-19 21:30N 33°21' W 118°19'0 0.1
2017-Jun-19 21:00N 33°21' W 118°19'0 0.1
2017-Jun-19 20:27N 33°21' W 118°19'0 0.0
2017-Jun-19 20:00N 33°21' W 118°19'0 0.0
2017-Jun-19 19:29N 33°21' W 118°19'0 0.0
2017-Jun-19 18:59N 33°21' W 118°19'0 0.0
2017-Jun-19 18:29N 33°21' W 118°19'0 0.0
2017-Jun-19 17:59N 33°21' W 118°19'0 0.1
2017-Jun-19 17:29N 33°21' W 118°19'0 0.0
2017-Jun-19 16:58N 33°21' W 118°19'0 0.0
2017-Jun-19 16:28N 33°21' W 118°19'0 0.0
2017-Jun-19 15:58N 33°21' W 118°19'0 0.0
2017-Jun-19 15:30N 33°21' W 118°19'0 0.1
2017-Jun-19 15:00N 33°21' W 118°19'0 0.3
2017-Jun-19 14:00N 33°21' W 118°19'3 5.8
2017-Jun-19 13:30N 33°18' W 118°17'4 7.3
2017-Jun-19 13:00N 33°15' W 118°17'4 7.5
2017-Jun-19 12:30N 33°11' W 118°17'4 8.1
2017-Jun-19 12:00N 33°07' W 118°17'4 7.7
2017-Jun-19 11:30N 33°04' W 118°15'4 7.6
2017-Jun-19 11:00N 33°01' W 118°11'4 7.5
2017-Jun-19 10:30N 32°58' W 118°08'4 7.9
2017-Jun-19 10:00N 32°55' W 118°05'4 7.4
2017-Jun-19 09:30N 32°53' W 118°01'3 6.7
2017-Jun-19 09:00N 32°52' W 117°57'3 6.2
2017-Jun-19 08:30N 32°55' W 117°55'4 7.2
2017-Jun-19 08:00N 32°58' W 117°56'4 7.1
2017-Jun-19 07:30N 33°01' W 117°58'3 6.5
2017-Jun-19 07:00N 33°05' W 117°59'3 6.2
2017-Jun-19 06:30N 33°07' W 118°01'3 6.3
2017-Jun-19 06:00N 33°10' W 118°02'3 6.5
2017-Jun-19 05:30N 33°13' W 118°03'3 6.5
2017-Jun-19 05:00N 33°16' W 118°05'3 6.5
2017-Jun-19 04:30N 33°19' W 118°06'3 6.5
2017-Jun-19 04:00N 33°22' W 118°08'3 6.6
2017-Jun-19 03:30N 33°25' W 118°09'3 6.7
2017-Jun-19 03:00N 33°29' W 118°11'3 6.7
2017-Jun-19 02:30N 33°32' W 118°12'3 6.7
2017-Jun-19 02:00N 33°35' W 118°13'510.6
2017-Jun-19 01:31N 33°40' W 118°12'5 9.5
2017-Jun-19 01:00N 33°45' W 118°11'0 0.4
2017-Jun-19 00:28N 33°45' W 118°11'0 0.0
2017-Jun-18 23:58N 33°45' W 118°11'0 0.0
2017-Jun-18 23:28N 33°45' W 118°11'0 0.0
2017-Jun-18 22:58N 33°45' W 118°11'0 0.0
2017-Jun-18 22:30N 33°45' W 118°11'0 0.0
2017-Jun-18 22:00N 33°45' W 118°11'0 0.0
2017-Jun-18 21:30N 33°45' W 118°11'0 0.0
2017-Jun-18 21:00N 33°45' W 118°11'0 0.0
2017-Jun-18 20:29N 33°45' W 118°11'0 0.0
2017-Jun-18 19:59N 33°45' W 118°11'0 0.0
2017-Jun-18 19:29N 33°45' W 118°11'0 0.1
2017-Jun-18 18:53N 33°45' W 118°11'0 0.0
2017-Jun-18 18:29N 33°45' W 118°11'0 0.0
2017-Jun-18 17:58N 33°45' W 118°11'0 0.0
2017-Jun-18 17:28N 33°45' W 118°11'0 0.0
2017-Jun-18 16:58N 33°45' W 118°11'0 0.0
2017-Jun-18 16:28N 33°45' W 118°11'0 0.0
2017-Jun-18 16:01N 33°45' W 118°11'0 0.0
2017-Jun-18 15:30N 33°45' W 118°11'0 0.1
2017-Jun-18 14:49N 33°45' W 118°11'0 0.0
2017-Jun-18 13:57N 33°45' W 118°11'0 0.0
2017-Jun-18 13:30N 33°45' W 118°11'0 0.0
2017-Jun-18 13:00N 33°45' W 118°11'0 0.5
2017-Jun-18 12:30N 33°45' W 118°11'3 5.5
2017-Jun-18 12:00N 33°42' W 118°11'5 9.4
2017-Jun-18 11:30N 33°37' W 118°10'4 8.3
2017-Jun-18 11:00N 33°33' W 118°09'3 6.9
2017-Jun-18 10:30N 33°30' W 118°07'4 7.0
2017-Jun-18 10:00N 33°27' W 118°06'4 7.0
2017-Jun-18 09:30N 33°24' W 118°04'4 7.1
2017-Jun-18 09:00N 33°20' W 118°03'4 7.1
2017-Jun-18 08:30N 33°17' W 118°02'4 7.2
2017-Jun-18 08:00N 33°13' W 118°00'4 7.5
2017-Jun-18 07:30N 33°10' W 117°59'4 8.1
2017-Jun-18 07:00N 33°06' W 117°58'4 7.3
2017-Jun-18 06:30N 33°03' W 117°56'3 6.4
2017-Jun-18 06:00N 33°00' W 117°53'3 6.5
2017-Jun-18 05:30N 32°57' W 117°52'3 6.7
2017-Jun-18 05:00N 32°54' W 117°51'3 6.8
2017-Jun-18 04:30N 32°51' W 117°49'3 6.8
2017-Jun-18 04:00N 32°48' W 117°48'3 6.9
2017-Jun-18 03:30N 32°44' W 117°47'3 6.9
2017-Jun-18 03:00N 32°41' W 117°47'4 7.1
2017-Jun-18 02:30N 32°37' W 117°45'4 7.0
2017-Jun-18 02:00N 32°36' W 117°41'3 7.0
2017-Jun-18 01:30N 32°34' W 117°37'3 6.6
2017-Jun-18 01:00N 32°31' W 117°37'4 7.0
2017-Jun-18 00:30N 32°28' W 117°37'3 7.0
2017-Jun-18 00:00N 32°24' W 117°36'3 6.8
2017-Jun-17 23:30N 32°21' W 117°36'3 6.7
2017-Jun-17 23:00N 32°17' W 117°37'3 6.7
2017-Jun-17 22:30N 32°14' W 117°37'3 6.9
2017-Jun-17 22:00N 32°11' W 117°37'3 6.7
2017-Jun-17 21:30N 32°07' W 117°36'3 6.8
2017-Jun-17 21:00N 32°04' W 117°36'4 6.8
2017-Jun-17 20:30N 32°00' W 117°36'3 6.6
2017-Jun-17 20:00N 31°57' W 117°36'3 6.8
2017-Jun-17 19:30N 31°54' W 117°36'3 6.7
2017-Jun-17 19:00N 31°51' W 117°37'3 6.4
2017-Jun-17 18:30N 31°49' W 117°41'3 6.9
2017-Jun-17 18:00N 31°49' W 117°45'3 6.7
2017-Jun-17 17:30N 31°48' W 117°49'3 6.7
2017-Jun-17 17:00N 31°47' W 117°53'3 6.9
2017-Jun-17 16:30N 31°46' W 117°56'3 6.9
2017-Jun-17 16:00N 31°46' W 118°00'3 6.9
2017-Jun-17 15:30N 31°45' W 118°04'3 7.0
2017-Jun-17 15:00N 31°44' W 118°08'3 6.9
2017-Jun-17 14:30N 31°42' W 118°12'7 7.1
2017-Jun-17 13:30N 31°35' W 118°11'3 6.5
2017-Jun-17 13:00N 31°35' W 118°07'3 6.8
2017-Jun-17 12:30N 31°36' W 118°03'3 6.8
2017-Jun-17 12:00N 31°37' W 117°59'3 6.9
2017-Jun-17 11:30N 31°37' W 117°55'3 6.8
2017-Jun-17 11:00N 31°38' W 117°52'3 6.7
2017-Jun-17 10:30N 31°39' W 117°48'3 6.8
2017-Jun-17 10:00N 31°40' W 117°44'3 6.7
2017-Jun-17 09:30N 31°41' W 117°40'3 6.7
2017-Jun-17 09:00N 31°42' W 117°36'3 6.5
2017-Jun-17 08:30N 31°43' W 117°33'3 6.5
2017-Jun-17 08:00N 31°44' W 117°29'3 6.5
2017-Jun-17 07:30N 31°45' W 117°25'3 6.5
2017-Jun-17 07:00N 31°45' W 117°22'3 6.6
2017-Jun-17 06:30N 31°46' W 117°18'3 6.6
2017-Jun-17 06:00N 31°47' W 117°14'4 6.9
2017-Jun-17 05:30N 31°48' W 117°10'4 8.5
2017-Jun-17 05:00N 31°49' W 117°05'3 6.7
2017-Jun-17 04:30N 31°50' W 117°02'6 6.7
2017-Jun-17 03:33N 31°52' W 116°54'7 6.2
2017-Jun-17 02:26N 31°52' W 116°46'3 7.0
2017-Jun-17 02:01N 31°50' W 116°43'8 0.6
2017-Jun-16 12:48N 31°54' W 116°52'312.3
2017-Jun-16 12:31N 31°55' W 116°56'612.2
2017-Jun-16 12:01N 31°56' W 117°03'612.1
2017-Jun-16 11:31N 31°58' W 117°09'611.9
2017-Jun-16 11:01N 31°60' W 117°16'611.9
2017-Jun-16 10:30N 32°04' W 117°21'612.2
2017-Jun-16 10:01N 32°08' W 117°26'612.4
2017-Jun-16 09:31N 32°13' W 117°31'612.0
2017-Jun-16 09:01N 32°19' W 117°33'612.7
2017-Jun-16 08:31N 32°25' W 117°35'612.8
2017-Jun-16 08:00N 32°31' W 117°36'611.2
2017-Jun-16 07:30N 32°35' W 117°41'611.7
2017-Jun-16 07:01N 32°39' W 117°46'612.8
2017-Jun-16 06:31N 32°45' W 117°48'612.7
2017-Jun-16 06:00N 32°51' W 117°49'612.6
2017-Jun-16 05:31N 32°57' W 117°52'612.6
2017-Jun-16 05:01N 33°03' W 117°56'612.2
2017-Jun-16 04:30N 33°08' W 117°59'612.2
2017-Jun-16 04:00N 33°14' W 118°03'612.0
2017-Jun-16 03:30N 33°19' W 118°06'611.7
2017-Jun-16 03:01N 33°24' W 118°09'611.9
2017-Jun-16 02:30N 33°30' W 118°11'611.9
2017-Jun-16 02:01N 33°35' W 118°13'611.8
2017-Jun-16 01:31N 33°41' W 118°12'4 7.6
2017-Jun-16 01:00N 33°45' W 118°11'0 0.2
2017-Jun-16 00:29N 33°45' W 118°11'0 0.0
2017-Jun-15 23:50N 33°45' W 118°11'0 0.0
2017-Jun-15 23:26N 33°45' W 118°11'0 0.0
2017-Jun-15 22:58N 33°45' W 118°11'0 0.0
2017-Jun-15 22:28N 33°45' W 118°11'0 0.0
2017-Jun-15 21:58N 33°45' W 118°11'0 0.0
2017-Jun-15 21:28N 33°45' W 118°11'0 0.0
2017-Jun-15 21:01N 33°45' W 118°11'0 0.0
2017-Jun-15 20:30N 33°45' W 118°11'0 0.0
2017-Jun-15 20:00N 33°45' W 118°11'0 0.0
2017-Jun-15 19:30N 33°45' W 118°11'0 0.0
2017-Jun-15 19:00N 33°45' W 118°11'0 0.0
2017-Jun-15 18:29N 33°45' W 118°11'0 0.0
2017-Jun-15 17:59N 33°45' W 118°11'0 0.0
2017-Jun-15 17:29N 33°45' W 118°11'0 0.0
2017-Jun-15 16:59N 33°45' W 118°11'0 0.0
2017-Jun-15 16:29N 33°45' W 118°11'0 0.0
2017-Jun-15 15:58N 33°45' W 118°11'0 0.0
2017-Jun-15 15:28N 33°45' W 118°11'0 0.0
2017-Jun-15 14:58N 33°45' W 118°11'0 0.0
2017-Jun-15 14:01N 33°45' W 118°11'0 0.0
2017-Jun-15 13:30N 33°45' W 118°11'0 0.0
2017-Jun-15 13:01N 33°45' W 118°11'0 0.8
2017-Jun-15 12:30N 33°45' W 118°11'3 5.7
2017-Jun-15 12:00N 33°42' W 118°11'5 9.8
2017-Jun-15 11:30N 33°37' W 118°10'4 7.8
2017-Jun-15 11:01N 33°33' W 118°09'3 6.8
2017-Jun-15 10:31N 33°30' W 118°07'4 7.1
2017-Jun-15 10:00N 33°27' W 118°06'4 7.1
2017-Jun-15 09:31N 33°23' W 118°04'4 7.2
2017-Jun-15 09:01N 33°20' W 118°03'4 7.2
2017-Jun-15 08:31N 33°17' W 118°01'4 7.1
2017-Jun-15 08:01N 33°14' W 117°59'4 7.2
2017-Jun-15 07:31N 33°10' W 117°58'4 7.3
2017-Jun-15 07:00N 33°07' W 117°56'4 7.3
2017-Jun-15 06:31N 33°03' W 117°54'4 7.2
2017-Jun-15 06:01N 33°00' W 117°53'3 6.8
2017-Jun-15 05:31N 32°57' W 117°52'3 6.7
2017-Jun-15 05:00N 32°54' W 117°50'3 6.2
2017-Jun-15 04:31N 32°51' W 117°49'3 6.3
2017-Jun-15 04:00N 32°48' W 117°48'4 7.1
2017-Jun-15 03:31N 32°44' W 117°47'4 7.1
2017-Jun-15 03:01N 32°41' W 117°47'3 6.9
2017-Jun-15 02:31N 32°37' W 117°45'3 6.7
2017-Jun-15 02:01N 32°36' W 117°42'3 7.0
2017-Jun-15 01:31N 32°34' W 117°38'4 7.1
2017-Jun-15 01:01N 32°31' W 117°37'4 7.3
2017-Jun-15 00:31N 32°27' W 117°37'4 7.2
2017-Jun-15 00:01N 32°24' W 117°37'4 7.2
2017-Jun-14 23:30N 32°20' W 117°37'4 7.0
2017-Jun-14 23:00N 32°17' W 117°37'3 6.9
2017-Jun-14 22:31N 32°13' W 117°36'3 6.9
2017-Jun-14 22:01N 32°10' W 117°37'3 6.8
2017-Jun-14 21:30N 32°06' W 117°36'3 6.9
2017-Jun-14 21:01N 32°03' W 117°36'3 6.8
2017-Jun-14 20:30N 31°59' W 117°36'3 6.7
2017-Jun-14 20:01N 31°56' W 117°36'3 6.8
2017-Jun-14 19:30N 31°53' W 117°37'3 6.2
2017-Jun-14 19:00N 31°50' W 117°39'3 6.5
2017-Jun-14 18:30N 31°49' W 117°42'3 6.7
2017-Jun-14 18:00N 31°48' W 117°46'3 6.7
2017-Jun-14 17:31N 31°48' W 117°50'3 7.0
2017-Jun-14 17:01N 31°47' W 117°54'3 6.9
2017-Jun-14 16:31N 31°46' W 117°58'4 7.1
2017-Jun-14 16:00N 31°45' W 118°02'3 7.0
2017-Jun-14 15:30N 31°45' W 118°06'4 7.1
2017-Jun-14 15:01N 31°44' W 118°10'7 6.8
2017-Jun-14 14:01N 31°37' W 118°12'3 6.6
2017-Jun-14 13:31N 31°34' W 118°10'3 6.7
2017-Jun-14 13:01N 31°35' W 118°06'3 6.9
2017-Jun-14 12:30N 31°36' W 118°02'4 7.0
2017-Jun-14 12:00N 31°37' W 117°58'3 7.0
2017-Jun-14 11:31N 31°38' W 117°54'4 7.1
2017-Jun-14 11:01N 31°39' W 117°50'3 6.9
2017-Jun-14 10:30N 31°40' W 117°46'4 7.0
2017-Jun-14 10:00N 31°41' W 117°42'3 6.9
2017-Jun-14 09:31N 31°42' W 117°38'3 6.9
2017-Jun-14 09:00N 31°43' W 117°34'3 6.6
2017-Jun-14 08:31N 31°43' W 117°31'3 6.7
2017-Jun-14 08:00N 31°44' W 117°27'3 6.8
2017-Jun-14 07:30N 31°45' W 117°23'3 6.8
2017-Jun-14 07:01N 31°46' W 117°19'3 6.8
2017-Jun-14 06:30N 31°47' W 117°15'3 6.7
2017-Jun-14 06:00N 31°48' W 117°11'3 6.7
2017-Jun-14 05:31N 31°49' W 117°08'3 6.5
2017-Jun-14 05:00N 31°50' W 117°04'5 6.9
2017-Jun-14 04:19N 31°51' W 116°59'2 7.0
2017-Jun-14 04:00N 31°52' W 116°56'4 6.8
2017-Jun-14 03:28N 31°53' W 116°52'6 6.1
2017-Jun-14 02:30N 31°51' W 116°45'  
Track history (hours):
 
Tides and Currents Weather Stations Pressure Air Temp Water Temp Dewpoint Dewpoint Depression Visibility Wind Speed Wind Dir Waves Ship Positions

Imagination

Operator: Carnival Cruise Lines

Last reported at 2017-Jun-23 12:44 UTC. Time now 2017-Jun-23 17:24 UTC.
Position N 31°53' W 116°50'.

Type: Ship. MMSI: 309933000.

Date/timePositionNaut miles runAvg speedWind from/ knotsBaromVisibWave heightAir tempDewpointWater temp
2017-Jun-23 12:44N 31°53' W 116°50'311.5
2017-Jun-23 12:26N 31°54' W 116°54'512.3
2017-Jun-23 12:00N 31°56' W 116°60'712.4
2017-Jun-23 11:27N 31°58' W 117°07'612.3
2017-Jun-23 11:00N 31°59' W 117°14'611.9
2017-Jun-23 10:30N 32°03' W 117°19'612.4
2017-Jun-23 10:00N 32°07' W 117°24'712.7
2017-Jun-23 09:29N 32°12' W 117°30'612.3
2017-Jun-23 09:00N 32°17' W 117°33'612.7
2017-Jun-23 08:30N 32°23' W 117°35'612.4
2017-Jun-23 08:00N 32°29' W 117°36'611.5
2017-Jun-23 07:31N 32°34' W 117°40'611.8
2017-Jun-23 07:01N 32°39' W 117°44'612.4
2017-Jun-23 06:30N 32°45' W 117°46'612.2
2017-Jun-23 06:01N 32°51' W 117°48'612.2
2017-Jun-23 05:30N 32°56' W 117°51'612.6
2017-Jun-23 05:01N 33°02' W 117°55'612.2
2017-Jun-23 04:31N 33°07' W 117°59'611.9
2017-Jun-23 04:01N 33°12' W 118°02'612.0
2017-Jun-23 03:31N 33°17' W 118°06'611.9
2017-Jun-23 03:01N 33°23' W 118°09'611.8
2017-Jun-23 02:31N 33°28' W 118°11'611.8
2017-Jun-23 02:01N 33°34' W 118°13'611.4
2017-Jun-23 01:30N 33°40' W 118°12'5 9.6
2017-Jun-23 01:00N 33°44' W 118°11'1 1.5
2017-Jun-23 00:30N 33°45' W 118°11'0 0.0
2017-Jun-22 23:57N 33°45' W 118°11'0 0.0
2017-Jun-22 23:30N 33°45' W 118°11'0 0.0
2017-Jun-22 22:56N 33°45' W 118°11'0 0.0
2017-Jun-22 22:29N 33°45' W 118°11'0 0.0
2017-Jun-22 21:59N 33°45' W 118°11'0 0.0
2017-Jun-22 21:29N 33°45' W 118°11'0 0.0
2017-Jun-22 20:58N 33°45' W 118°11'0 0.0
2017-Jun-22 20:28N 33°45' W 118°11'0 0.0
2017-Jun-22 19:58N 33°45' W 118°11'0 0.0
2017-Jun-22 19:28N 33°45' W 118°11'0 0.0
2017-Jun-22 18:58N 33°45' W 118°11'0 0.0
2017-Jun-22 18:30N 33°45' W 118°11'0 0.0
2017-Jun-22 18:00N 33°45' W 118°11'0 0.0
2017-Jun-22 17:30N 33°45' W 118°11'0 0.0
2017-Jun-22 16:57N 33°45' W 118°11'0 0.0
2017-Jun-22 16:30N 33°45' W 118°11'0 0.0
2017-Jun-22 15:59N 33°45' W 118°11'0 0.0
2017-Jun-22 15:29N 33°45' W 118°11'0 0.0
2017-Jun-22 14:59N 33°45' W 118°11'0 0.0
2017-Jun-22 13:59N 33°45' W 118°11'0 0.0
2017-Jun-22 13:28N 33°45' W 118°11'0 0.0
2017-Jun-22 12:58N 33°45' W 118°11'0 0.4
2017-Jun-22 12:30N 33°45' W 118°11'3 5.7
2017-Jun-22 12:00N 33°42' W 118°11'510.0
2017-Jun-22 11:30N 33°37' W 118°10'4 7.3
2017-Jun-22 11:00N 33°34' W 118°09'4 7.3
2017-Jun-22 10:30N 33°30' W 118°07'4 7.2
2017-Jun-22 10:00N 33°27' W 118°06'4 7.4
2017-Jun-22 09:30N 33°23' W 118°04'4 7.4
2017-Jun-22 09:00N 33°20' W 118°03'4 7.2
2017-Jun-22 08:30N 33°16' W 118°01'4 7.3
2017-Jun-22 08:00N 33°13' W 117°59'4 7.3
2017-Jun-22 07:30N 33°10' W 117°58'4 7.4
2017-Jun-22 07:00N 33°06' W 117°56'4 7.7
2017-Jun-22 06:30N 33°03' W 117°54'4 7.7
2017-Jun-22 06:00N 32°59' W 117°53'4 8.9
2017-Jun-22 05:30N 32°55' W 117°51'4 9.0
2017-Jun-22 05:00N 32°51' W 117°49'5 9.3
2017-Jun-22 04:30N 32°46' W 117°48'5 9.3
2017-Jun-22 04:00N 32°42' W 117°47'5 9.1
2017-Jun-22 03:30N 32°37' W 117°45'5 9.5
2017-Jun-22 03:00N 32°35' W 117°40'4 8.8
2017-Jun-22 02:30N 32°32' W 117°36'5 9.1
2017-Jun-22 02:00N 32°27' W 117°35'4 9.0
2017-Jun-22 01:30N 32°23' W 117°34'4 8.8
2017-Jun-22 01:00N 32°19' W 117°33'4 8.5
2017-Jun-22 00:30N 32°15' W 117°31'5 8.6
2017-Jun-21 23:55N 32°11' W 117°27'4 8.6
2017-Jun-21 23:30N 32°09' W 117°24'4 8.5
2017-Jun-21 22:59N 32°06' W 117°20'5 8.7
2017-Jun-21 22:27N 32°02' W 117°16'4 9.3
2017-Jun-21 22:00N 31°59' W 117°14'7 9.0
2017-Jun-21 21:11N 31°52' W 117°09'2 9.6
2017-Jun-21 21:00N 31°51' W 117°10'612.0
2017-Jun-21 20:28N 31°49' W 117°17'814.1
2017-Jun-21 19:56N 31°48' W 117°26'614.1
2017-Jun-21 19:30N 31°48' W 117°33'714.1
2017-Jun-21 19:00N 31°47' W 117°41'714.1
2017-Jun-21 18:30N 31°47' W 117°49'713.8
2017-Jun-21 18:00N 31°46' W 117°58'713.6
2017-Jun-21 17:31N 31°45' W 118°05'713.4
2017-Jun-21 17:00N 31°41' W 118°12'714.1
2017-Jun-21 16:30N 31°34' W 118°12'714.1
2017-Jun-21 16:01N 31°27' W 118°12'612.1
2017-Jun-21 15:31N 31°22' W 118°08'713.9
2017-Jun-21 15:01N 31°22' W 118°00'611.4
2017-Jun-21 14:31N 31°22' W 117°53'7 6.5
2017-Jun-21 13:30N 31°23' W 117°46'3 6.7
2017-Jun-21 13:00N 31°26' W 117°46'4 7.1
2017-Jun-21 12:31N 31°29' W 117°47'4 7.0
2017-Jun-21 12:01N 31°33' W 117°49'3 6.9
2017-Jun-21 11:30N 31°36' W 117°50'3 6.3
2017-Jun-21 11:00N 31°39' W 117°49'3 6.7
2017-Jun-21 10:30N 31°40' W 117°45'3 6.3
2017-Jun-21 10:01N 31°41' W 117°41'3 6.4
2017-Jun-21 09:31N 31°42' W 117°38'3 6.6
2017-Jun-21 09:01N 31°43' W 117°34'3 6.4
2017-Jun-21 08:31N 31°43' W 117°30'3 6.5
2017-Jun-21 08:00N 31°44' W 117°27'3 6.7
2017-Jun-21 07:30N 31°45' W 117°23'3 6.3
2017-Jun-21 07:00N 31°46' W 117°19'3 6.4
2017-Jun-21 06:30N 31°47' W 117°16'3 6.7
2017-Jun-21 06:00N 31°48' W 117°12'3 6.6
2017-Jun-21 05:30N 31°49' W 117°08'3 6.5
2017-Jun-21 05:00N 31°50' W 117°04'9 6.5
2017-Jun-21 03:32N 31°52' W 116°54'7 6.4
2017-Jun-21 02:29N 31°51' W 116°46'3 6.6
2017-Jun-21 02:00N 31°50' W 116°42'3 0.3
2017-Jun-20 14:03N 31°50' W 116°38'10 7.6
2017-Jun-20 12:48N 31°53' W 116°49'3 9.9
2017-Jun-20 12:30N 31°54' W 116°52'5 9.9
2017-Jun-20 12:00N 31°55' W 116°58'5 9.9
2017-Jun-20 11:30N 31°57' W 117°03'5 9.7
2017-Jun-20 11:01N 31°58' W 117°09'5 9.7
2017-Jun-20 10:30N 31°59' W 117°15'4 8.9
2017-Jun-20 10:00N 32°01' W 117°19'5 9.4
2017-Jun-20 09:31N 32°05' W 117°22'5 9.7
2017-Jun-20 09:00N 32°08' W 117°26'5 9.7
2017-Jun-20 08:31N 32°12' W 117°30'5 9.9
2017-Jun-20 08:01N 32°16' W 117°33'510.7
2017-Jun-20 07:31N 32°21' W 117°34'510.5
2017-Jun-20 07:00N 32°27' W 117°35'510.5
2017-Jun-20 06:31N 32°32' W 117°36'5 9.5
2017-Jun-20 06:00N 32°35' W 117°40'510.1
2017-Jun-20 05:31N 32°38' W 117°46'611.1
2017-Jun-20 05:01N 32°43' W 117°48'510.7
2017-Jun-20 04:31N 32°48' W 117°50'510.5
2017-Jun-20 04:01N 32°53' W 117°53'510.6
2017-Jun-20 03:30N 32°57' W 117°55'510.4
2017-Jun-20 03:00N 33°02' W 117°58'510.7
2017-Jun-20 02:30N 33°06' W 118°02'510.5
2017-Jun-20 02:01N 33°10' W 118°06'510.3
2017-Jun-20 01:30N 33°14' W 118°10'510.2
2017-Jun-20 01:00N 33°18' W 118°15'4 9.0
2017-Jun-20 00:30N 33°21' W 118°19'0 0.9
2017-Jun-19 23:58N 33°21' W 118°19'0 0.1
2017-Jun-19 23:28N 33°21' W 118°19'0 0.1
2017-Jun-19 22:58N 33°21' W 118°19'0 0.0
2017-Jun-19 22:28N 33°21' W 118°19'0 0.1
2017-Jun-19 22:00N 33°21' W 118°19'0 0.0
2017-Jun-19 21:30N 33°21' W 118°19'0 0.1
2017-Jun-19 21:00N 33°21' W 118°19'0 0.1
2017-Jun-19 20:27N 33°21' W 118°19'0 0.0
2017-Jun-19 20:00N 33°21' W 118°19'0 0.0
2017-Jun-19 19:29N 33°21' W 118°19'0 0.0
2017-Jun-19 18:59N 33°21' W 118°19'0 0.0
2017-Jun-19 18:29N 33°21' W 118°19'0 0.0
2017-Jun-19 17:59N 33°21' W 118°19'0 0.1
2017-Jun-19 17:29N 33°21' W 118°19'0 0.0
2017-Jun-19 16:58N 33°21' W 118°19'0 0.0
2017-Jun-19 16:28N 33°21' W 118°19'0 0.0
2017-Jun-19 15:58N 33°21' W 118°19'0 0.0
2017-Jun-19 15:30N 33°21' W 118°19'0 0.1
2017-Jun-19 15:00N 33°21' W 118°19'0 0.3
2017-Jun-19 14:00N 33°21' W 118°19'3 5.8
2017-Jun-19 13:30N 33°18' W 118°17'4 7.3
2017-Jun-19 13:00N 33°15' W 118°17'4 7.5
2017-Jun-19 12:30N 33°11' W 118°17'4 8.1
2017-Jun-19 12:00N 33°07' W 118°17'4 7.7
2017-Jun-19 11:30N 33°04' W 118°15'4 7.6
2017-Jun-19 11:00N 33°01' W 118°11'4 7.5
2017-Jun-19 10:30N 32°58' W 118°08'4 7.9
2017-Jun-19 10:00N 32°55' W 118°05'4 7.4
2017-Jun-19 09:30N 32°53' W 118°01'3 6.7
2017-Jun-19 09:00N 32°52' W 117°57'3 6.2
2017-Jun-19 08:30N 32°55' W 117°55'4 7.2
2017-Jun-19 08:00N 32°58' W 117°56'4 7.1
2017-Jun-19 07:30N 33°01' W 117°58'3 6.5
2017-Jun-19 07:00N 33°05' W 117°59'3 6.2
2017-Jun-19 06:30N 33°07' W 118°01'3 6.3
2017-Jun-19 06:00N 33°10' W 118°02'3 6.5
2017-Jun-19 05:30N 33°13' W 118°03'3 6.5
2017-Jun-19 05:00N 33°16' W 118°05'3 6.5
2017-Jun-19 04:30N 33°19' W 118°06'3 6.5
2017-Jun-19 04:00N 33°22' W 118°08'3 6.6
2017-Jun-19 03:30N 33°25' W 118°09'3 6.7
2017-Jun-19 03:00N 33°29' W 118°11'3 6.7
2017-Jun-19 02:30N 33°32' W 118°12'3 6.7
2017-Jun-19 02:00N 33°35' W 118°13'510.6
2017-Jun-19 01:31N 33°40' W 118°12'5 9.5
2017-Jun-19 01:00N 33°45' W 118°11'0 0.4
2017-Jun-19 00:28N 33°45' W 118°11'0 0.0
2017-Jun-18 23:58N 33°45' W 118°11'0 0.0
2017-Jun-18 23:28N 33°45' W 118°11'0 0.0
2017-Jun-18 22:58N 33°45' W 118°11'0 0.0
2017-Jun-18 22:30N 33°45' W 118°11'0 0.0
2017-Jun-18 22:00N 33°45' W 118°11'0 0.0
2017-Jun-18 21:30N 33°45' W 118°11'0 0.0
2017-Jun-18 21:00N 33°45' W 118°11'0 0.0
2017-Jun-18 20:29N 33°45' W 118°11'0 0.0
2017-Jun-18 19:59N 33°45' W 118°11'0 0.0
2017-Jun-18 19:29N 33°45' W 118°11'0 0.1
2017-Jun-18 18:53N 33°45' W 118°11'0 0.0
2017-Jun-18 18:29N 33°45' W 118°11'0 0.0
2017-Jun-18 17:58N 33°45' W 118°11'0 0.0
2017-Jun-18 17:28N 33°45' W 118°11'0 0.0
2017-Jun-18 16:58N 33°45' W 118°11'0 0.0
2017-Jun-18 16:28N 33°45' W 118°11'0 0.0
2017-Jun-18 16:01N 33°45' W 118°11'0 0.0
2017-Jun-18 15:30N 33°45' W 118°11'0 0.1
2017-Jun-18 14:49N 33°45' W 118°11'0 0.0
2017-Jun-18 13:57N 33°45' W 118°11'0 0.0
2017-Jun-18 13:30N 33°45' W 118°11'0 0.0
2017-Jun-18 13:00N 33°45' W 118°11'0 0.5
2017-Jun-18 12:30N 33°45' W 118°11'3 5.5
2017-Jun-18 12:00N 33°42' W 118°11'5 9.4
2017-Jun-18 11:30N 33°37' W 118°10'4 8.3
2017-Jun-18 11:00N 33°33' W 118°09'3 6.9
2017-Jun-18 10:30N 33°30' W 118°07'4 7.0
2017-Jun-18 10:00N 33°27' W 118°06'4 7.0
2017-Jun-18 09:30N 33°24' W 118°04'4 7.1
2017-Jun-18 09:00N 33°20' W 118°03'4 7.1
2017-Jun-18 08:30N 33°17' W 118°02'4 7.2
2017-Jun-18 08:00N 33°13' W 118°00'4 7.5
2017-Jun-18 07:30N 33°10' W 117°59'4 8.1
2017-Jun-18 07:00N 33°06' W 117°58'4 7.3
2017-Jun-18 06:30N 33°03' W 117°56'3 6.4
2017-Jun-18 06:00N 33°00' W 117°53'3 6.5
2017-Jun-18 05:30N 32°57' W 117°52'3 6.7
2017-Jun-18 05:00N 32°54' W 117°51'3 6.8
2017-Jun-18 04:30N 32°51' W 117°49'3 6.8
2017-Jun-18 04:00N 32°48' W 117°48'3 6.9
2017-Jun-18 03:30N 32°44' W 117°47'3 6.9
2017-Jun-18 03:00N 32°41' W 117°47'4 7.1
2017-Jun-18 02:30N 32°37' W 117°45'4 7.0
2017-Jun-18 02:00N 32°36' W 117°41'3 7.0
2017-Jun-18 01:30N 32°34' W 117°37'3 6.6
2017-Jun-18 01:00N 32°31' W 117°37'4 7.0
2017-Jun-18 00:30N 32°28' W 117°37'3 7.0
2017-Jun-18 00:00N 32°24' W 117°36'3 6.8
2017-Jun-17 23:30N 32°21' W 117°36'3 6.7
2017-Jun-17 23:00N 32°17' W 117°37'3 6.7
2017-Jun-17 22:30N 32°14' W 117°37'3 6.9
2017-Jun-17 22:00N 32°11' W 117°37'3 6.7
2017-Jun-17 21:30N 32°07' W 117°36'3 6.8
2017-Jun-17 21:00N 32°04' W 117°36'4 6.8
2017-Jun-17 20:30N 32°00' W 117°36'3 6.6
2017-Jun-17 20:00N 31°57' W 117°36'3 6.8
2017-Jun-17 19:30N 31°54' W 117°36'3 6.7
2017-Jun-17 19:00N 31°51' W 117°37'3 6.4
2017-Jun-17 18:30N 31°49' W 117°41'3 6.9
2017-Jun-17 18:00N 31°49' W 117°45'3 6.7
2017-Jun-17 17:30N 31°48' W 117°49'3 6.7
2017-Jun-17 17:00N 31°47' W 117°53'3 6.9
2017-Jun-17 16:30N 31°46' W 117°56'3 6.9
2017-Jun-17 16:00N 31°46' W 118°00'3 6.9
2017-Jun-17 15:30N 31°45' W 118°04'3 7.0
2017-Jun-17 15:00N 31°44' W 118°08'3 6.9
2017-Jun-17 14:30N 31°42' W 118°12'7 7.1
2017-Jun-17 13:30N 31°35' W 118°11'3 6.5
2017-Jun-17 13:00N 31°35' W 118°07'3 6.8
2017-Jun-17 12:30N 31°36' W 118°03'3 6.8
2017-Jun-17 12:00N 31°37' W 117°59'3 6.9
2017-Jun-17 11:30N 31°37' W 117°55'3 6.8
2017-Jun-17 11:00N 31°38' W 117°52'3 6.7
2017-Jun-17 10:30N 31°39' W 117°48'3 6.8
2017-Jun-17 10:00N 31°40' W 117°44'3 6.7
2017-Jun-17 09:30N 31°41' W 117°40'3 6.7
2017-Jun-17 09:00N 31°42' W 117°36'3 6.5
2017-Jun-17 08:30N 31°43' W 117°33'3 6.5
2017-Jun-17 08:00N 31°44' W 117°29'3 6.5
2017-Jun-17 07:30N 31°45' W 117°25'3 6.5
2017-Jun-17 07:00N 31°45' W 117°22'3 6.6
2017-Jun-17 06:30N 31°46' W 117°18'3 6.6
2017-Jun-17 06:00N 31°47' W 117°14'4 6.9
2017-Jun-17 05:30N 31°48' W 117°10'4 8.5
2017-Jun-17 05:00N 31°49' W 117°05'3 6.7
2017-Jun-17 04:30N 31°50' W 117°02'6 6.7
2017-Jun-17 03:33N 31°52' W 116°54'7 6.2
2017-Jun-17 02:26N 31°52' W 116°46'3 7.0
2017-Jun-17 02:01N 31°50' W 116°43'8 0.6
2017-Jun-16 12:48N 31°54' W 116°52'312.3
2017-Jun-16 12:31N 31°55' W 116°56'612.2
2017-Jun-16 12:01N 31°56' W 117°03'612.1
2017-Jun-16 11:31N 31°58' W 117°09'611.9
2017-Jun-16 11:01N 31°60' W 117°16'611.9
2017-Jun-16 10:30N 32°04' W 117°21'612.2
2017-Jun-16 10:01N 32°08' W 117°26'612.4
2017-Jun-16 09:31N 32°13' W 117°31'612.0
2017-Jun-16 09:01N 32°19' W 117°33'612.7
2017-Jun-16 08:31N 32°25' W 117°35'612.8
2017-Jun-16 08:00N 32°31' W 117°36'611.2
2017-Jun-16 07:30N 32°35' W 117°41'611.7
2017-Jun-16 07:01N 32°39' W 117°46'612.8
2017-Jun-16 06:31N 32°45' W 117°48'612.7
2017-Jun-16 06:00N 32°51' W 117°49'612.6
2017-Jun-16 05:31N 32°57' W 117°52'612.6
2017-Jun-16 05:01N 33°03' W 117°56'612.2
2017-Jun-16 04:30N 33°08' W 117°59'612.2
2017-Jun-16 04:00N 33°14' W 118°03'612.0
2017-Jun-16 03:30N 33°19' W 118°06'611.7
2017-Jun-16 03:01N 33°24' W 118°09'611.9
2017-Jun-16 02:30N 33°30' W 118°11'611.9
2017-Jun-16 02:01N 33°35' W 118°13'611.8
2017-Jun-16 01:31N 33°41' W 118°12'4 7.6
2017-Jun-16 01:00N 33°45' W 118°11'0 0.2
2017-Jun-16 00:29N 33°45' W 118°11'0 0.0
2017-Jun-15 23:50N 33°45' W 118°11'0 0.0
2017-Jun-15 23:26N 33°45' W 118°11'0 0.0
2017-Jun-15 22:58N 33°45' W 118°11'0 0.0
2017-Jun-15 22:28N 33°45' W 118°11'0 0.0
2017-Jun-15 21:58N 33°45' W 118°11'0 0.0
2017-Jun-15 21:28N 33°45' W 118°11'0 0.0
2017-Jun-15 21:01N 33°45' W 118°11'0 0.0
2017-Jun-15 20:30N 33°45' W 118°11'0 0.0
2017-Jun-15 20:00N 33°45' W 118°11'0 0.0
2017-Jun-15 19:30N 33°45' W 118°11'0 0.0
2017-Jun-15 19:00N 33°45' W 118°11'0 0.0
2017-Jun-15 18:29N 33°45' W 118°11'0 0.0
2017-Jun-15 17:59N 33°45' W 118°11'0 0.0
2017-Jun-15 17:29N 33°45' W 118°11'0 0.0
2017-Jun-15 16:59N 33°45' W 118°11'0 0.0
2017-Jun-15 16:29N 33°45' W 118°11'0 0.0
2017-Jun-15 15:58N 33°45' W 118°11'0 0.0
2017-Jun-15 15:28N 33°45' W 118°11'0 0.0
2017-Jun-15 14:58N 33°45' W 118°11'0 0.0
2017-Jun-15 14:01N 33°45' W 118°11'0 0.0
2017-Jun-15 13:30N 33°45' W 118°11'0 0.0
2017-Jun-15 13:01N 33°45' W 118°11'0 0.8
2017-Jun-15 12:30N 33°45' W 118°11'3 5.7
2017-Jun-15 12:00N 33°42' W 118°11'5 9.8
2017-Jun-15 11:30N 33°37' W 118°10'4 7.8
2017-Jun-15 11:01N 33°33' W 118°09'3 6.8
2017-Jun-15 10:31N 33°30' W 118°07'4 7.1
2017-Jun-15 10:00N 33°27' W 118°06'4 7.1
2017-Jun-15 09:31N 33°23' W 118°04'4 7.2
2017-Jun-15 09:01N 33°20' W 118°03'4 7.2
2017-Jun-15 08:31N 33°17' W 118°01'4 7.1
2017-Jun-15 08:01N 33°14' W 117°59'4 7.2
2017-Jun-15 07:31N 33°10' W 117°58'4 7.3
2017-Jun-15 07:00N 33°07' W 117°56'4 7.3
2017-Jun-15 06:31N 33°03' W 117°54'4 7.2
2017-Jun-15 06:01N 33°00' W 117°53'3 6.8
2017-Jun-15 05:31N 32°57' W 117°52'3 6.7
2017-Jun-15 05:00N 32°54' W 117°50'3 6.2
2017-Jun-15 04:31N 32°51' W 117°49'3 6.3
2017-Jun-15 04:00N 32°48' W 117°48'4 7.1
2017-Jun-15 03:31N 32°44' W 117°47'4 7.1
2017-Jun-15 03:01N 32°41' W 117°47'3 6.9
2017-Jun-15 02:31N 32°37' W 117°45'3 6.7
2017-Jun-15 02:01N 32°36' W 117°42'3 7.0
2017-Jun-15 01:31N 32°34' W 117°38'4 7.1
2017-Jun-15 01:01N 32°31' W 117°37'4 7.3
2017-Jun-15 00:31N 32°27' W 117°37'4 7.2
2017-Jun-15 00:01N 32°24' W 117°37'4 7.2
2017-Jun-14 23:30N 32°20' W 117°37'4 7.0
2017-Jun-14 23:00N 32°17' W 117°37'3 6.9
2017-Jun-14 22:31N 32°13' W 117°36'3 6.9
2017-Jun-14 22:01N 32°10' W 117°37'3 6.8
2017-Jun-14 21:30N 32°06' W 117°36'3 6.9
2017-Jun-14 21:01N 32°03' W 117°36'3 6.8
2017-Jun-14 20:30N 31°59' W 117°36'3 6.7
2017-Jun-14 20:01N 31°56' W 117°36'3 6.8
2017-Jun-14 19:30N 31°53' W 117°37'3 6.2
2017-Jun-14 19:00N 31°50' W 117°39'3 6.5
2017-Jun-14 18:30N 31°49' W 117°42'3 6.7
2017-Jun-14 18:00N 31°48' W 117°46'3 6.7
2017-Jun-14 17:31N 31°48' W 117°50'3 7.0
2017-Jun-14 17:01N 31°47' W 117°54'3 6.9
2017-Jun-14 16:31N 31°46' W 117°58'4 7.1
2017-Jun-14 16:00N 31°45' W 118°02'3 7.0
2017-Jun-14 15:30N 31°45' W 118°06'4 7.1
2017-Jun-14 15:01N 31°44' W 118°10'7 6.8
2017-Jun-14 14:01N 31°37' W 118°12'3 6.6
2017-Jun-14 13:31N 31°34' W 118°10'3 6.7
2017-Jun-14 13:01N 31°35' W 118°06'3 6.9
2017-Jun-14 12:30N 31°36' W 118°02'4 7.0
2017-Jun-14 12:00N 31°37' W 117°58'3 7.0
2017-Jun-14 11:31N 31°38' W 117°54'4 7.1
2017-Jun-14 11:01N 31°39' W 117°50'3 6.9
2017-Jun-14 10:30N 31°40' W 117°46'4 7.0
2017-Jun-14 10:00N 31°41' W 117°42'3 6.9
2017-Jun-14 09:31N 31°42' W 117°38'3 6.9
2017-Jun-14 09:00N 31°43' W 117°34'3 6.6
2017-Jun-14 08:31N 31°43' W 117°31'3 6.7
2017-Jun-14 08:00N 31°44' W 117°27'3 6.8
2017-Jun-14 07:30N 31°45' W 117°23'3 6.8
2017-Jun-14 07:01N 31°46' W 117°19'3 6.8
2017-Jun-14 06:30N 31°47' W 117°15'3 6.7
2017-Jun-14 06:00N 31°48' W 117°11'3 6.7
2017-Jun-14 05:31N 31°49' W 117°08'3 6.5
2017-Jun-14 05:00N 31°50' W 117°04'5 6.9
2017-Jun-14 04:19N 31°51' W 116°59'2 7.0
2017-Jun-14 04:00N 31°52' W 116°56'4 6.8
2017-Jun-14 03:28N 31°53' W 116°52'6 6.1
2017-Jun-14 02:30N 31°51' W 116°45'  

Dump ship's entire track history